createdAt,value
2022-12-17T00:02:28.834Z,58.42
2022-12-17T00:05:10.710Z,51.35
2022-12-17T00:07:54.387Z,60.50
2022-12-17T00:10:49.866Z,48.47
2022-12-17T00:13:36.376Z,54.90
2022-12-17T00:16:19.246Z,54.13
2022-12-17T00:19:01.031Z,55.83
2022-12-17T00:21:42.867Z,55.10
2022-12-17T00:24:26.593Z,56.20
2022-12-17T00:27:08.336Z,52.78
2022-12-17T00:29:50.098Z,53.28
2022-12-17T00:32:31.955Z,54.20
2022-12-17T00:35:13.785Z,55.25
2022-12-17T00:37:55.492Z,54.65
2022-12-17T00:40:40.099Z,55.03
2022-12-17T00:43:24.797Z,55.50
2022-12-17T00:46:07.152Z,55.88
2022-12-17T00:48:49.228Z,50.72
2022-12-17T00:54:12.732Z,51.85
2022-12-17T00:56:56.442Z,55.47
2022-12-17T00:59:38.261Z,55.00
2022-12-17T01:02:20.226Z,57.28
2022-12-17T01:07:43.793Z,55.03
2022-12-17T01:10:25.588Z,58.85
2022-12-17T01:13:09.319Z,58.63
2022-12-17T01:15:51.748Z,57.30
2022-12-17T01:21:15.940Z,60.28
2022-12-17T01:23:57.791Z,58.45
2022-12-17T01:26:39.671Z,62.95
2022-12-17T01:29:23.944Z,57.83
2022-12-17T01:32:05.747Z,56.60
2022-12-17T01:34:47.514Z,58.03
2022-12-17T01:37:29.378Z,61.85
2022-12-17T01:40:11.120Z,57.72
2022-12-17T01:42:54.309Z,58.05
2022-12-17T01:45:38.155Z,57.55
2022-12-17T01:48:27.755Z,58.95
2022-12-17T01:51:12.837Z,61.20
2022-12-17T01:54:00.211Z,57.13
2022-12-17T01:56:42.459Z,58.33
2022-12-17T01:59:26.800Z,58.28
2022-12-17T02:02:10.650Z,57.97
2022-12-17T02:04:52.945Z,56.22
2022-12-17T02:07:57.587Z,54.03
2022-12-17T02:10:44.107Z,54.35
2022-12-17T02:13:33.475Z,54.63
2022-12-17T02:16:24.277Z,52.88
2022-12-17T02:19:14.451Z,52.58
2022-12-17T02:21:59.563Z,52.28
2022-12-17T02:24:50.356Z,52.05
2022-12-17T02:27:36.259Z,52.08
2022-12-17T02:30:23.350Z,51.25
2022-12-17T02:33:06.584Z,51.38
2022-12-17T02:35:53.658Z,50.88
2022-12-17T02:38:39.072Z,49.58
2022-12-17T02:41:22.478Z,51.08
2022-12-17T02:44:07.719Z,50.88
2022-12-17T02:46:49.767Z,49.17
2022-12-17T02:52:13.979Z,49.72
2022-12-17T02:54:55.758Z,50.90
2022-12-17T02:57:41.072Z,48.75
2022-12-17T03:00:29.511Z,49.28
2022-12-17T03:03:11.327Z,49.88
2022-12-17T03:05:53.170Z,51.25
2022-12-17T03:08:34.983Z,49.30
2022-12-17T03:11:16.782Z,50.25
2022-12-17T03:13:58.574Z,53.97
2022-12-17T03:16:42.363Z,51.35
2022-12-17T03:19:24.759Z,52.58
2022-12-17T03:22:06.542Z,51.42
2022-12-17T03:24:48.648Z,53.17
2022-12-17T03:27:31.000Z,51.35
2022-12-17T03:30:12.862Z,50.67
2022-12-17T03:32:56.551Z,51.75
2022-12-17T03:35:38.318Z,50.42
2022-12-17T03:38:23.066Z,49.72
2022-12-17T03:41:05.550Z,50.50
2022-12-17T03:43:47.129Z,49.58
2022-12-17T03:46:43.544Z,50.55
2022-12-17T03:49:27.262Z,49.92
2022-12-17T03:52:09.055Z,50.08
2022-12-17T03:54:50.584Z,49.50
2022-12-17T03:57:32.399Z,50.40
2022-12-17T04:00:14.188Z,49.47
2022-12-17T04:02:56.151Z,48.10
2022-12-17T04:08:21.569Z,46.83
2022-12-17T04:11:03.354Z,49.30
2022-12-17T04:13:45.348Z,50.00
2022-12-17T04:16:27.452Z,49.08
2022-12-17T04:19:09.433Z,50.22
2022-12-17T04:24:34.710Z,50.92
2022-12-17T04:27:16.444Z,56.03
2022-12-17T04:29:58.171Z,55.60
2022-12-17T04:32:39.900Z,59.63
2022-12-17T04:35:22.357Z,61.13
2022-12-17T04:38:14.838Z,57.45
2022-12-17T04:41:02.155Z,56.85
2022-12-17T04:43:43.874Z,56.35
2022-12-17T04:46:25.715Z,58.70
2022-12-17T04:49:07.571Z,55.88
2022-12-17T04:52:01.029Z,56.08
2022-12-17T04:54:44.731Z,57.47
2022-12-17T04:57:26.500Z,54.45
2022-12-17T05:00:08.322Z,54.53
2022-12-17T05:02:50.129Z,54.47
2022-12-17T05:05:32.095Z,52.55
2022-12-17T05:08:13.934Z,51.28
2022-12-17T05:10:57.899Z,56.60
2022-12-17T05:13:39.806Z,53.92
2022-12-17T05:16:21.911Z,55.78
2022-12-17T05:19:03.675Z,53.25
2022-12-17T05:21:45.515Z,50.90
2022-12-17T05:24:27.338Z,56.10
2022-12-17T05:27:11.005Z,52.25
2022-12-17T05:29:52.739Z,51.13
2022-12-17T05:32:34.511Z,50.70
2022-12-17T05:35:16.279Z,49.80
2022-12-17T05:37:58.047Z,52.85
2022-12-17T05:40:39.892Z,52.03
2022-12-17T05:43:27.115Z,53.03
2022-12-17T05:46:08.991Z,50.78
2022-12-17T05:48:51.131Z,54.85
2022-12-17T05:54:21.572Z,51.78
2022-12-17T05:57:03.658Z,51.00
2022-12-17T05:59:47.388Z,53.58
2022-12-17T06:02:29.246Z,52.47
2022-12-17T06:05:11.111Z,53.55
2022-12-17T06:07:52.856Z,55.33
2022-12-17T06:10:34.940Z,53.25
2022-12-17T06:13:16.728Z,52.97
2022-12-17T06:16:03.872Z,52.88
2022-12-17T06:18:45.666Z,51.20
2022-12-17T06:21:27.455Z,52.53
2022-12-17T06:24:09.438Z,54.00
2022-12-17T06:29:32.820Z,52.03
2022-12-17T06:32:16.499Z,54.33
2022-12-17T06:35:04.087Z,52.65
2022-12-17T06:37:45.874Z,52.13
2022-12-17T06:40:27.674Z,54.53
2022-12-17T06:43:10.345Z,54.40
2022-12-17T06:45:52.100Z,51.78
2022-12-17T06:48:35.877Z,53.17
2022-12-17T06:51:17.797Z,49.65
2022-12-17T06:53:59.600Z,53.45
2022-12-17T06:56:41.714Z,52.47
2022-12-17T06:59:23.493Z,53.15
2022-12-17T07:02:16.939Z,55.08
2022-12-17T07:05:00.832Z,55.30
2022-12-17T07:07:42.593Z,54.60
2022-12-17T07:10:24.497Z,54.55
2022-12-17T07:13:06.274Z,57.00
2022-12-17T07:15:48.092Z,56.55
2022-12-17T07:18:29.880Z,57.90
2022-12-17T07:21:13.571Z,54.60
2022-12-17T07:23:55.342Z,55.78
2022-12-17T07:26:37.234Z,58.97
2022-12-17T07:29:19.062Z,56.47
2022-12-17T07:32:01.093Z,57.15
2022-12-17T07:37:26.486Z,55.77
2022-12-17T07:40:13.698Z,56.53
2022-12-17T07:42:55.652Z,57.92
2022-12-17T07:48:22.764Z,55.67
2022-12-17T07:51:04.880Z,56.78
2022-12-17T07:53:48.628Z,56.58
2022-12-17T07:56:30.560Z,56.40
2022-12-17T07:59:12.465Z,58.95
2022-12-17T08:01:54.771Z,58.97
2022-12-17T08:04:36.701Z,58.78
2022-12-17T08:07:18.510Z,58.47
2022-12-17T08:10:04.947Z,56.45
2022-12-17T08:12:46.796Z,55.75
2022-12-17T08:15:32.715Z,56.55
2022-12-17T08:18:21.422Z,51.55
2022-12-17T08:21:06.434Z,53.65
2022-12-17T08:23:50.066Z,56.45
2022-12-17T08:26:33.950Z,54.85
2022-12-17T08:29:15.768Z,55.05
2022-12-17T08:31:57.624Z,55.97
2022-12-17T08:34:39.395Z,54.38
2022-12-17T08:37:21.170Z,54.47
2022-12-17T08:40:04.884Z,53.08
2022-12-17T08:43:00.604Z,53.35
2022-12-17T08:45:42.489Z,52.80
2022-12-17T08:48:25.533Z,54.95
2022-12-17T08:51:07.799Z,52.17
2022-12-17T08:53:49.576Z,51.90
2022-12-17T08:56:33.272Z,53.60
2022-12-17T08:59:17.107Z,52.47
2022-12-17T09:01:59.267Z,55.28
2022-12-17T09:04:44.704Z,53.63
2022-12-17T09:07:29.371Z,52.13
2022-12-17T09:10:11.188Z,53.80
2022-12-17T09:12:53.346Z,53.72
2022-12-17T09:15:37.054Z,53.17
2022-12-17T09:18:20.726Z,52.85
2022-12-17T09:21:09.366Z,53.47
2022-12-17T09:23:51.210Z,52.35
2022-12-17T09:26:33.051Z,52.63
2022-12-17T09:29:14.851Z,55.05
2022-12-17T09:31:58.701Z,54.20
2022-12-17T09:34:40.540Z,53.30
2022-12-17T09:37:22.329Z,54.80
2022-12-17T09:40:08.189Z,54.03
2022-12-17T09:42:59.783Z,53.70
2022-12-17T09:45:51.135Z,55.33
2022-12-17T09:48:46.770Z,53.45
2022-12-17T09:51:39.004Z,54.20
2022-12-17T09:54:27.099Z,51.90
2022-12-17T09:57:09.255Z,51.28
2022-12-17T10:02:35.814Z,49.83
2022-12-17T10:05:27.860Z,52.55
2022-12-17T10:08:09.904Z,53.45
2022-12-17T10:10:59.701Z,50.42
2022-12-17T10:13:41.535Z,52.40
2022-12-17T10:16:42.465Z,51.28
2022-12-17T10:19:29.838Z,49.53
2022-12-17T10:22:26.029Z,49.42
2022-12-17T10:25:07.842Z,50.33
2022-12-17T10:27:49.823Z,50.35
2022-12-17T10:33:13.749Z,47.85
2022-12-17T10:35:55.640Z,50.60
2022-12-17T10:38:42.184Z,47.95
2022-12-17T10:41:39.438Z,50.50
2022-12-17T10:44:36.397Z,50.38
2022-12-17T10:47:18.228Z,48.63
2022-12-17T10:50:00.005Z,50.20
2022-12-17T10:52:45.228Z,52.22
2022-12-17T10:55:38.072Z,48.50
2022-12-17T10:58:25.850Z,48.50
2022-12-17T11:01:15.236Z,48.47
2022-12-17T11:04:05.544Z,47.63
2022-12-17T11:06:51.349Z,50.38
2022-12-17T11:09:49.169Z,48.78
2022-12-17T11:12:37.131Z,46.70
2022-12-17T11:15:32.339Z,47.20
2022-12-17T11:18:15.943Z,48.22
2022-12-17T11:21:05.444Z,47.22
2022-12-17T11:23:50.723Z,47.45
2022-12-17T11:26:35.671Z,47.47
2022-12-17T11:29:19.642Z,46.20
2022-12-17T11:32:17.366Z,48.75
2022-12-17T11:35:16.563Z,49.08
2022-12-17T11:38:09.798Z,48.88
2022-12-17T11:40:55.598Z,50.17
2022-12-17T11:43:46.808Z,48.85
2022-12-17T11:46:44.165Z,36.28
2022-12-17T11:49:40.956Z,47.95
2022-12-17T11:52:30.447Z,48.72
2022-12-17T11:55:24.087Z,49.45
2022-12-17T11:58:15.346Z,48.22
